createdAt,value
2022-11-15T00:00:28.775Z,229.19
2022-11-15T00:01:23.843Z,229.67
2022-11-15T00:02:18.912Z,229.67
2022-11-15T00:03:13.958Z,230.48
2022-11-15T00:04:09.340Z,232.60
2022-11-15T00:05:04.464Z,233.26
2022-11-15T00:05:59.660Z,234.26
2022-11-15T00:06:54.777Z,235.60
2022-11-15T00:07:55.622Z,236.62
2022-11-15T00:08:46.155Z,238.00
2022-11-15T00:09:45.807Z,237.14
2022-11-15T00:10:37.325Z,239.04
2022-11-15T00:11:31.510Z,238.00
2022-11-15T00:12:26.596Z,237.14
2022-11-15T00:13:21.716Z,237.82
2022-11-15T00:14:16.723Z,239.21
2022-11-15T00:15:11.790Z,239.91
2022-11-15T00:16:06.907Z,240.26
2022-11-15T00:17:01.961Z,240.62
2022-11-15T00:17:57.103Z,242.75
2022-11-15T00:18:57.396Z,243.29
2022-11-15T00:19:52.619Z,244.74
2022-11-15T00:20:48.050Z,246.21
2022-11-15T00:21:43.853Z,246.77
2022-11-15T00:22:38.880Z,247.89
2022-11-15T00:23:34.210Z,249.58
2022-11-15T00:24:30.427Z,250.54
2022-11-15T00:25:25.713Z,252.08
2022-11-15T00:26:21.563Z,252.66
2022-11-15T00:27:16.608Z,253.05
2022-11-15T00:28:11.760Z,256.21
2022-11-15T00:29:07.609Z,255.61
2022-11-15T00:30:02.813Z,256.61
2022-11-15T00:30:58.594Z,256.61
2022-11-15T00:31:53.836Z,257.01
2022-11-15T00:32:49.176Z,257.42
2022-11-15T00:33:44.893Z,258.43
2022-11-15T00:34:40.088Z,258.84
2022-11-15T00:35:35.228Z,258.63
2022-11-15T00:36:31.610Z,253.44
2022-11-15T00:37:26.758Z,254.62
2022-11-15T00:38:22.549Z,256.21
2022-11-15T00:39:17.652Z,258.43
2022-11-15T00:40:12.754Z,260.27
2022-11-15T00:41:09.918Z,262.36
2022-11-15T00:42:03.833Z,264.26
2022-11-15T00:42:59.755Z,265.33
2022-11-15T00:43:54.892Z,266.19
2022-11-15T00:44:50.043Z,269.69
2022-11-15T00:45:45.980Z,270.13
2022-11-15T00:46:41.121Z,270.58
2022-11-15T00:47:36.471Z,272.37
2022-11-15T00:48:32.562Z,275.58
2022-11-15T00:49:27.772Z,276.97
2022-11-15T00:50:23.600Z,277.68
2022-11-15T00:51:18.728Z,279.81
2022-11-15T00:53:40.576Z,240.44
2022-11-15T00:54:33.778Z,252.08
2022-11-15T00:55:29.771Z,259.66
2022-11-15T00:56:24.226Z,266.40
2022-11-15T00:57:19.416Z,271.02
2022-11-15T00:58:14.642Z,273.74
2022-11-15T00:59:09.758Z,275.11
2022-11-15T01:00:05.011Z,277.91
2022-11-15T01:01:00.120Z,278.15
2022-11-15T01:01:55.198Z,278.86
2022-11-15T01:02:50.396Z,280.29
2022-11-15T01:03:45.723Z,280.77
2022-11-15T01:04:40.815Z,281.01
2022-11-15T01:05:36.053Z,281.01
2022-11-15T01:06:31.139Z,281.49
2022-11-15T01:07:26.381Z,283.19
2022-11-15T01:08:21.463Z,283.43
2022-11-15T01:09:16.712Z,283.68
2022-11-15T01:10:11.704Z,284.17
2022-11-15T01:11:06.966Z,283.43
2022-11-15T01:12:02.061Z,283.92
2022-11-15T01:12:57.264Z,285.16
2022-11-15T01:13:52.648Z,285.16
2022-11-15T01:14:47.800Z,285.65
2022-11-15T01:15:42.853Z,285.65
2022-11-15T01:16:37.938Z,285.65
2022-11-15T01:17:33.146Z,285.16
2022-11-15T01:18:28.330Z,285.40
2022-11-15T01:19:23.546Z,285.16
2022-11-15T01:20:18.766Z,286.65
2022-11-15T01:21:13.909Z,285.40
2022-11-15T01:22:09.055Z,285.90
2022-11-15T01:23:04.320Z,284.17
2022-11-15T01:23:59.675Z,284.42
2022-11-15T01:24:54.764Z,284.42
2022-11-15T01:25:49.995Z,284.42
2022-11-15T01:26:45.147Z,284.91
2022-11-15T01:27:40.328Z,282.70
2022-11-15T01:28:35.591Z,285.16
2022-11-15T01:29:30.726Z,285.16
2022-11-15T01:30:26.103Z,286.15
2022-11-15T01:31:21.016Z,286.15
2022-11-15T01:32:16.232Z,287.66
2022-11-15T01:33:11.465Z,288.67
2022-11-15T01:34:06.784Z,291.23
2022-11-15T01:35:01.876Z,290.46
2022-11-15T01:35:57.270Z,292.01
2022-11-15T01:36:52.214Z,290.71
2022-11-15T01:37:47.433Z,292.53
2022-11-15T01:38:42.498Z,292.53
2022-11-15T01:39:37.709Z,292.27
2022-11-15T01:40:32.898Z,294.10
2022-11-15T01:41:28.244Z,291.49
2022-11-15T01:42:23.183Z,290.71
2022-11-15T01:43:18.446Z,290.20
2022-11-15T01:44:13.775Z,288.16
2022-11-15T01:45:08.842Z,287.66
2022-11-15T01:46:04.063Z,287.40
2022-11-15T01:46:59.253Z,286.65
2022-11-15T01:47:54.358Z,287.15
2022-11-15T01:48:49.565Z,286.40
2022-11-15T01:49:44.653Z,285.40
2022-11-15T01:50:39.844Z,286.40
2022-11-15T01:51:35.090Z,286.15
2022-11-15T01:52:30.198Z,284.42
2022-11-15T01:53:25.409Z,286.90
2022-11-15T01:54:20.748Z,285.90
2022-11-15T01:55:15.828Z,286.15
2022-11-15T01:56:11.016Z,285.65
2022-11-15T01:57:06.252Z,287.15
2022-11-15T01:58:02.050Z,286.40
2022-11-15T01:58:56.574Z,287.40
2022-11-15T01:59:51.796Z,287.40
2022-11-15T02:00:47.014Z,288.16
2022-11-15T02:01:42.202Z,288.92
2022-11-15T02:02:37.330Z,289.69
2022-11-15T02:03:32.779Z,290.97
2022-11-15T02:04:27.668Z,289.69
2022-11-15T02:05:22.779Z,290.71
2022-11-15T02:06:17.831Z,293.05
2022-11-15T02:07:13.209Z,291.49
2022-11-15T02:08:08.186Z,293.58
2022-11-15T02:09:03.264Z,295.43
2022-11-15T02:09:58.334Z,296.76
2022-11-15T02:10:53.533Z,295.96
2022-11-15T02:11:48.744Z,297.57
2022-11-15T02:12:43.835Z,300.02
2022-11-15T02:13:38.999Z,301.12
2022-11-15T02:14:34.358Z,302.23
2022-11-15T02:15:29.553Z,303.63
2022-11-15T02:16:24.608Z,307.04
2022-11-15T02:17:19.757Z,308.77
2022-11-15T02:18:15.392Z,311.11
2022-11-15T02:19:10.001Z,313.19
2022-11-15T02:20:05.167Z,315.30
2022-11-15T02:21:00.216Z,316.82
2022-11-15T02:21:55.471Z,317.74
2022-11-15T02:22:51.376Z,319.91
2022-11-15T02:23:45.755Z,323.06
2022-11-15T02:24:40.953Z,323.38
2022-11-15T02:25:36.018Z,325.30
2022-11-15T02:26:31.207Z,325.62
2022-11-15T02:27:26.569Z,328.89
2022-11-15T02:28:21.540Z,329.88
2022-11-15T02:29:16.602Z,330.55
2022-11-15T02:30:11.680Z,332.89
2022-11-15T02:31:06.868Z,332.55
2022-11-15T02:32:02.217Z,332.55
2022-11-15T02:32:57.173Z,333.23
2022-11-15T02:33:52.358Z,335.27
2022-11-15T02:34:47.677Z,335.96
2022-11-15T02:35:42.764Z,338.04
2022-11-15T02:36:37.987Z,340.14
2022-11-15T02:37:33.054Z,339.44
2022-11-15T02:38:28.242Z,335.96
2022-11-15T02:39:23.413Z,333.57
2022-11-15T02:40:19.043Z,331.55
2022-11-15T02:41:13.693Z,335.62
2022-11-15T02:42:08.927Z,335.96
2022-11-15T02:43:08.141Z,334.59
2022-11-15T02:43:59.332Z,336.65
2022-11-15T02:44:54.425Z,340.49
2022-11-15T02:45:49.610Z,340.14
2022-11-15T02:46:45.083Z,341.91
2022-11-15T02:47:40.569Z,341.20
2022-11-15T02:48:35.135Z,340.49
2022-11-15T02:49:30.301Z,338.04
2022-11-15T02:50:25.373Z,338.73
2022-11-15T02:51:20.758Z,339.79
2022-11-15T02:52:15.807Z,339.79
2022-11-15T02:53:10.928Z,340.49
2022-11-15T02:54:06.070Z,339.08
2022-11-15T02:55:01.295Z,340.49
2022-11-15T02:55:56.578Z,342.63
2022-11-15T02:56:51.618Z,341.56
2022-11-15T02:57:46.698Z,341.56
2022-11-15T02:58:41.874Z,339.79
2022-11-15T02:59:37.075Z,340.85
2022-11-15T03:00:32.214Z,342.27
2022-11-15T03:01:27.300Z,342.27
2022-11-15T03:02:23.391Z,342.98
2022-11-15T03:03:17.543Z,347.34
2022-11-15T03:04:13.572Z,347.71
2022-11-15T03:05:07.802Z,351.06
2022-11-15T03:06:02.991Z,352.19
2022-11-15T03:06:58.375Z,353.71
2022-11-15T03:07:56.873Z,357.56
2022-11-15T03:08:49.451Z,358.73
2022-11-15T03:09:43.582Z,361.50
2022-11-15T03:10:38.768Z,359.52
2022-11-15T03:11:34.200Z,359.13
2022-11-15T03:12:29.854Z,360.70
2022-11-15T03:13:24.398Z,361.90
2022-11-15T03:14:19.816Z,364.31
2022-11-15T03:15:15.608Z,365.12
2022-11-15T03:16:10.785Z,367.99
2022-11-15T03:17:05.898Z,366.75
2022-11-15T03:18:01.121Z,364.71
2022-11-15T03:18:57.296Z,367.16
2022-11-15T03:19:51.441Z,370.06
2022-11-15T03:20:46.746Z,370.90
2022-11-15T03:21:41.804Z,371.32
2022-11-15T03:22:36.907Z,373.01
2022-11-15T03:23:32.470Z,371.74
2022-11-15T03:24:27.448Z,373.01
2022-11-15T03:25:22.581Z,370.90
2022-11-15T03:26:18.509Z,371.74
2022-11-15T03:27:13.615Z,373.01
2022-11-15T03:28:08.568Z,371.32
2022-11-15T03:29:04.374Z,371.74
2022-11-15T03:29:59.618Z,373.43
2022-11-15T03:30:54.952Z,374.28
2022-11-15T03:31:51.650Z,376.00
2022-11-15T03:32:46.334Z,373.01
2022-11-15T03:33:42.130Z,373.43
2022-11-15T03:34:37.319Z,371.74
2022-11-15T03:35:32.539Z,370.90
2022-11-15T03:36:28.224Z,374.28
2022-11-15T03:37:23.491Z,373.86
2022-11-15T03:38:19.382Z,371.32
2022-11-15T03:39:20.175Z,372.58
2022-11-15T03:40:10.867Z,369.23
2022-11-15T03:41:05.617Z,369.23
2022-11-15T03:42:00.717Z,370.90
2022-11-15T03:42:55.865Z,369.23
2022-11-15T03:43:52.324Z,370.90
2022-11-15T03:44:47.581Z,370.48
2022-11-15T03:45:43.541Z,370.90
2022-11-15T03:46:38.603Z,371.74
2022-11-15T03:47:33.741Z,370.90
2022-11-15T03:48:29.556Z,373.01
2022-11-15T03:49:24.683Z,373.43
2022-11-15T03:50:20.474Z,370.90
2022-11-15T03:51:15.542Z,370.90
2022-11-15T03:52:10.815Z,370.90
2022-11-15T03:53:06.474Z,372.58
2022-11-15T03:54:01.606Z,370.90
2022-11-15T03:54:56.887Z,372.58
2022-11-15T03:55:53.100Z,373.01
2022-11-15T03:56:48.340Z,373.86
2022-11-15T03:57:44.170Z,376.00
2022-11-15T03:58:39.260Z,375.14
2022-11-15T03:59:34.429Z,378.17
2022-11-15T04:00:30.249Z,381.92
2022-11-15T04:01:25.386Z,378.17
2022-11-15T04:02:21.342Z,380.83
2022-11-15T04:03:16.439Z,385.23
2022-11-15T04:04:11.846Z,382.14
2022-11-15T04:05:07.650Z,385.90
2022-11-15T04:06:02.861Z,386.12
2022-11-15T04:06:58.114Z,386.57
2022-11-15T04:07:54.358Z,389.51
2022-11-15T04:08:49.486Z,390.19
2022-11-15T04:09:45.325Z,385.23
2022-11-15T04:10:40.679Z,385.68
2022-11-15T04:11:36.172Z,384.56
2022-11-15T04:12:31.843Z,385.45
2022-11-15T04:13:26.865Z,386.57
2022-11-15T04:14:22.788Z,385.68
2022-11-15T04:15:17.936Z,387.69
2022-11-15T04:16:13.282Z,385.68
2022-11-15T04:17:08.866Z,386.79
2022-11-15T04:18:04.188Z,389.05
2022-11-15T04:18:59.330Z,388.14
2022-11-15T04:19:55.934Z,383.24
2022-11-15T04:20:51.101Z,384.34
2022-11-15T04:21:46.887Z,383.46
2022-11-15T04:22:42.135Z,385.68
2022-11-15T04:23:37.279Z,385.01
2022-11-15T04:24:33.279Z,384.12
2022-11-15T04:25:32.111Z,383.24
2022-11-15T04:26:23.564Z,385.68
2022-11-15T04:27:18.737Z,385.68
2022-11-15T04:28:13.877Z,386.35
2022-11-15T04:29:08.916Z,385.01
2022-11-15T04:30:03.952Z,385.23
2022-11-15T04:30:59.000Z,386.12
2022-11-15T04:31:53.995Z,387.69
2022-11-15T04:32:48.997Z,383.68
2022-11-15T04:33:44.068Z,374.28
2022-11-15T04:34:39.116Z,365.53
2022-11-15T04:35:34.116Z,361.10
2022-11-15T04:36:29.295Z,358.73
2022-11-15T04:37:24.318Z,342.27
2022-11-15T04:38:19.325Z,338.73
2022-11-15T04:39:14.421Z,340.14
2022-11-15T04:40:09.432Z,342.27
2022-11-15T04:41:04.552Z,335.27
2022-11-15T04:41:59.721Z,328.56
2022-11-15T04:42:57.189Z,330.88
2022-11-15T04:43:50.790Z,338.73
2022-11-15T04:44:44.872Z,340.49
2022-11-15T04:45:40.656Z,340.85
2022-11-15T04:46:35.840Z,343.70
2022-11-15T04:47:30.970Z,344.79
2022-11-15T04:48:26.409Z,342.98
2022-11-15T04:49:21.469Z,342.63
2022-11-15T04:50:16.687Z,345.88
2022-11-15T04:51:12.691Z,338.04
2022-11-15T04:52:07.851Z,338.39
2022-11-15T04:53:03.249Z,318.05
2022-11-15T04:53:58.279Z,306.75
2022-11-15T04:54:53.344Z,309.06
2022-11-15T04:55:48.502Z,312.30
2022-11-15T04:56:43.604Z,318.98
2022-11-15T04:57:38.898Z,326.60
2022-11-15T04:58:34.038Z,332.55
2022-11-15T04:59:32.952Z,325.95
2022-11-15T05:00:28.179Z,330.55
2022-11-15T05:01:23.473Z,331.88
2022-11-15T05:02:18.598Z,334.25
2022-11-15T05:03:13.861Z,339.08
2022-11-15T05:04:09.142Z,341.56
2022-11-15T05:05:04.475Z,344.06
2022-11-15T05:05:59.538Z,344.42
2022-11-15T05:06:54.737Z,345.15
2022-11-15T05:07:50.469Z,345.88
2022-11-15T05:08:45.603Z,348.08
2022-11-15T05:09:41.390Z,346.97
2022-11-15T05:10:36.636Z,346.24
2022-11-15T05:11:31.849Z,343.34
2022-11-15T05:12:27.702Z,337.34
2022-11-15T05:13:22.798Z,339.79
2022-11-15T05:14:17.910Z,344.79
2022-11-15T05:15:14.306Z,345.88
2022-11-15T05:16:09.700Z,346.97
2022-11-15T05:17:05.386Z,345.88
2022-11-15T05:18:00.518Z,343.70
2022-11-15T05:18:56.185Z,332.89
2022-11-15T05:19:51.718Z,332.55
2022-11-15T05:20:46.744Z,336.65
2022-11-15T05:21:42.731Z,335.96
2022-11-15T05:22:37.760Z,337.34
2022-11-15T05:23:33.488Z,336.65
2022-11-15T05:24:29.292Z,335.27
2022-11-15T05:25:24.337Z,332.55
2022-11-15T05:26:19.610Z,325.30
2022-11-15T05:27:15.978Z,320.85
2022-11-15T05:28:11.271Z,320.22
2022-11-15T05:29:07.156Z,319.29
2022-11-15T05:30:02.440Z,316.21
2022-11-15T05:30:57.878Z,318.05
2022-11-15T05:31:53.469Z,316.21
2022-11-15T05:32:48.705Z,313.19
2022-11-15T05:33:44.567Z,313.19
2022-11-15T05:34:39.786Z,311.41
2022-11-15T05:35:35.157Z,312.89
2022-11-15T05:36:30.929Z,311.70
2022-11-15T05:37:26.035Z,307.61
2022-11-15T05:38:21.139Z,308.77
2022-11-15T05:39:17.585Z,307.90
2022-11-15T05:40:12.936Z,309.35
2022-11-15T05:41:08.646Z,310.82
2022-11-15T05:42:03.854Z,314.39
2022-11-15T05:42:59.051Z,319.60
2022-11-15T05:43:55.036Z,316.52
2022-11-15T05:44:50.101Z,316.52
2022-11-15T05:45:45.838Z,319.60
2022-11-15T05:46:40.964Z,318.05
2022-11-15T05:47:36.311Z,318.36
2022-11-15T05:48:31.863Z,320.54
2022-11-15T05:49:27.163Z,321.16
2022-11-15T05:50:22.321Z,324.66
2022-11-15T05:51:18.761Z,325.62
2022-11-15T05:52:13.954Z,325.95
2022-11-15T05:53:09.779Z,312.30
2022-11-15T05:54:04.886Z,307.90
2022-11-15T05:55:00.024Z,296.76
2022-11-15T05:55:55.840Z,213.25
2022-11-15T05:56:51.164Z,205.24
2022-11-15T05:57:47.139Z,205.89
2022-11-15T05:58:43.139Z,226.50
2022-11-15T05:59:37.580Z,242.75
2022-11-15T06:00:33.504Z,239.74
2022-11-15T06:01:28.650Z,256.01
2022-11-15T06:02:23.958Z,269.24
2022-11-15T06:03:20.274Z,272.83
2022-11-15T06:04:15.404Z,280.29
2022-11-15T06:05:11.265Z,288.92
2022-11-15T06:06:06.670Z,295.96
2022-11-15T06:07:02.079Z,297.03
2022-11-15T06:07:57.164Z,299.74
2022-11-15T06:08:52.401Z,300.84
2022-11-15T06:09:48.864Z,294.10
2022-11-15T06:10:44.283Z,288.92
2022-11-15T06:11:39.924Z,288.67
2022-11-15T06:12:35.131Z,291.75
2022-11-15T06:13:30.781Z,295.69
2022-11-15T06:14:26.293Z,293.84
2022-11-15T06:15:22.467Z,293.05
2022-11-15T06:16:17.431Z,293.84
2022-11-15T06:17:12.525Z,284.17
2022-11-15T06:18:07.812Z,273.28
2022-11-15T06:19:03.531Z,274.42
2022-11-15T06:19:58.849Z,276.51
2022-11-15T06:20:54.310Z,279.09
2022-11-15T06:21:50.519Z,281.73
2022-11-15T06:22:45.830Z,276.74
2022-11-15T06:23:42.490Z,276.27
2022-11-15T06:24:38.242Z,281.01
2022-11-15T06:25:32.756Z,284.66
2022-11-15T06:26:27.958Z,287.66
2022-11-15T06:27:23.316Z,288.67
2022-11-15T06:28:18.675Z,288.16
2022-11-15T06:29:15.505Z,284.17
2022-11-15T06:30:10.856Z,275.81
2022-11-15T06:31:07.181Z,266.84
2022-11-15T06:32:01.555Z,264.05
2022-11-15T06:32:56.626Z,263.20
2022-11-15T06:33:51.726Z,267.93
2022-11-15T06:34:46.789Z,270.80
2022-11-15T06:35:41.888Z,271.02
2022-11-15T06:36:36.990Z,268.58
2022-11-15T06:37:32.051Z,269.47
2022-11-15T06:38:27.174Z,269.91
2022-11-15T06:39:22.276Z,269.69
2022-11-15T06:40:19.194Z,262.78
2022-11-15T06:41:14.411Z,265.97
2022-11-15T06:42:09.788Z,270.35
2022-11-15T06:43:05.150Z,270.80
2022-11-15T06:44:00.234Z,269.24
2022-11-15T06:44:55.202Z,272.37
2022-11-15T06:45:50.215Z,271.70
2022-11-15T06:46:45.223Z,269.02
2022-11-15T06:47:40.358Z,264.05
2022-11-15T06:48:35.332Z,261.94
2022-11-15T06:49:32.613Z,254.03
2022-11-15T06:50:27.628Z,253.64
2022-11-15T06:51:22.587Z,248.45
2022-11-15T06:52:19.721Z,248.45
2022-11-15T06:53:12.815Z,250.92
2022-11-15T06:54:08.287Z,250.73
2022-11-15T06:55:02.765Z,242.39
2022-11-15T06:55:57.765Z,235.77
2022-11-15T06:56:52.811Z,228.23
2022-11-15T06:57:47.806Z,225.56
2022-11-15T06:58:42.865Z,226.18
2022-11-15T06:59:40.672Z,221.90
2022-11-15T07:00:33.233Z,221.75
2022-11-15T07:01:28.868Z,224.33
2022-11-15T07:02:24.143Z,222.35
2022-11-15T07:03:19.587Z,221.60
2022-11-15T07:04:17.488Z,217.35
2022-11-15T07:05:12.816Z,212.70
2022-11-15T07:06:08.262Z,215.35
2022-11-15T07:07:03.769Z,216.06
2022-11-15T07:07:59.279Z,218.79
2022-11-15T07:08:54.819Z,222.81
2022-11-15T07:09:50.850Z,222.35
2022-11-15T07:10:44.953Z,224.48
2022-11-15T07:11:40.021Z,222.65
2022-11-15T07:12:35.110Z,219.38
2022-11-15T07:13:30.809Z,215.07
2022-11-15T07:14:25.317Z,211.33
2022-11-15T07:15:20.379Z,205.12
2022-11-15T07:16:15.525Z,198.54
2022-11-15T07:17:10.574Z,193.16
2022-11-15T07:18:05.676Z,181.98
2022-11-15T07:19:00.758Z,156.54
2022-11-15T07:19:56.077Z,153.24
2022-11-15T07:20:51.489Z,156.69
2022-11-15T07:21:47.738Z,155.81
2022-11-15T07:22:42.391Z,148.86
2022-11-15T07:23:37.903Z,148.73
2022-11-15T07:24:33.677Z,147.16
2022-11-15T07:25:29.295Z,118.35
2022-11-15T07:26:24.391Z,77.16
2022-11-15T07:27:19.876Z,73.43
2022-11-15T07:28:15.324Z,78.18
2022-11-15T07:29:10.715Z,85.37
2022-11-15T07:30:06.242Z,95.00
2022-11-15T07:31:01.723Z,99.86
2022-11-15T07:31:58.208Z,104.69
2022-11-15T07:32:53.642Z,106.97
2022-11-15T07:33:49.173Z,111.18
2022-11-15T07:34:44.872Z,114.14
2022-11-15T07:35:40.327Z,118.10
2022-11-15T07:36:35.879Z,120.57
2022-11-15T07:37:30.888Z,121.10
2022-11-15T07:38:25.893Z,123.89
2022-11-15T07:39:21.378Z,124.25
2022-11-15T07:40:15.885Z,124.53
2022-11-15T07:41:10.991Z,126.13
2022-11-15T07:42:06.166Z,126.04
2022-11-15T07:43:01.155Z,126.32
2022-11-15T07:43:56.249Z,126.90
2022-11-15T07:44:55.295Z,126.52
2022-11-15T07:45:53.512Z,126.32
2022-11-15T07:46:46.515Z,125.38
2022-11-15T07:47:40.707Z,113.14
2022-11-15T07:48:44.044Z,99.99
2022-11-15T07:49:33.337Z,91.96
2022-11-15T07:50:27.790Z,85.11
2022-11-15T07:51:23.113Z,79.82
2022-11-15T07:52:18.602Z,74.01
2022-11-15T07:53:14.173Z,70.75
2022-11-15T07:54:09.648Z,68.94
2022-11-15T07:55:05.101Z,67.06
2022-11-15T07:56:00.470Z,62.91
2022-11-15T07:56:55.916Z,58.54
2022-11-15T07:57:51.394Z,54.45
2022-11-15T07:58:46.827Z,53.82
2022-11-15T07:59:42.393Z,50.56
2022-11-15T08:00:37.833Z,48.53
2022-11-15T08:01:32.936Z,47.21
2022-11-15T08:02:30.614Z,48.17
2022-11-15T08:03:23.209Z,51.18
2022-11-15T08:04:17.987Z,54.03
2022-11-15T08:05:13.128Z,56.40
2022-11-15T08:06:08.086Z,59.04
2022-11-15T08:07:03.330Z,61.43
2022-11-15T08:07:59.142Z,63.97
2022-11-15T08:08:54.414Z,66.15
2022-11-15T08:09:49.395Z,68.32
2022-11-15T08:10:44.545Z,69.80
2022-11-15T08:11:40.620Z,71.85
2022-11-15T08:12:35.929Z,73.49
2022-11-15T08:13:31.559Z,75.56
2022-11-15T08:14:26.667Z,77.02
2022-11-15T08:15:22.894Z,77.81
2022-11-15T08:16:18.261Z,78.69
2022-11-15T08:17:13.650Z,80.28
2022-11-15T08:18:09.052Z,82.18
2022-11-15T08:19:04.432Z,80.59
2022-11-15T08:19:59.930Z,77.23
2022-11-15T08:20:55.351Z,78.69
2022-11-15T08:21:50.721Z,80.82
2022-11-15T08:22:46.102Z,82.58
2022-11-15T08:23:41.476Z,85.11
2022-11-15T08:24:37.298Z,85.72
2022-11-15T08:25:31.640Z,85.72
2022-11-15T08:26:27.610Z,86.35
2022-11-15T08:27:21.717Z,87.52
2022-11-15T08:28:16.763Z,89.88
2022-11-15T08:29:11.874Z,92.37
2022-11-15T08:30:06.961Z,92.99
2022-11-15T08:31:04.904Z,94.35
2022-11-15T08:31:59.650Z,93.93
2022-11-15T08:32:54.766Z,93.82
2022-11-15T08:33:49.840Z,94.03
2022-11-15T08:34:44.944Z,94.46
2022-11-15T08:35:39.935Z,94.35
2022-11-15T08:36:44.606Z,93.72
2022-11-15T08:37:31.108Z,93.30
2022-11-15T08:38:25.116Z,94.25
2022-11-15T08:39:20.213Z,94.89
2022-11-15T08:40:15.274Z,94.07
2022-11-15T08:41:10.594Z,94.44
2022-11-15T08:42:05.422Z,95.58
2022-11-15T08:43:00.552Z,97.08
2022-11-15T08:43:55.993Z,97.25
2022-11-15T08:44:51.352Z,96.79
2022-11-15T08:45:46.762Z,96.46
2022-11-15T08:46:42.266Z,96.35
2022-11-15T08:47:37.792Z,97.36
2022-11-15T08:48:33.504Z,96.74
2022-11-15T08:49:28.722Z,95.74
2022-11-15T08:50:24.245Z,94.76
2022-11-15T08:51:19.472Z,94.87
2022-11-15T08:52:14.900Z,95.68
2022-11-15T08:53:10.344Z,97.13
2022-11-15T08:54:07.413Z,97.59
2022-11-15T08:55:01.937Z,98.45
2022-11-15T08:55:57.328Z,98.74
2022-11-15T08:56:52.711Z,99.57
2022-11-15T08:57:48.139Z,99.81
2022-11-15T08:58:43.507Z,100.04
2022-11-15T08:59:38.984Z,101.57
2022-11-15T09:00:34.415Z,102.44
2022-11-15T09:01:30.124Z,102.88
2022-11-15T09:02:25.636Z,103.91
2022-11-15T09:03:20.857Z,103.78
2022-11-15T09:04:15.715Z,103.84
2022-11-15T09:05:10.807Z,104.95
2022-11-15T09:06:05.884Z,104.62
2022-11-15T09:07:01.046Z,104.62
2022-11-15T09:07:56.036Z,104.43
2022-11-15T09:08:51.210Z,103.26
2022-11-15T09:09:48.559Z,104.49
2022-11-15T09:10:43.952Z,104.69
2022-11-15T09:11:39.405Z,105.15
2022-11-15T09:12:34.905Z,104.30
2022-11-15T09:13:30.408Z,103.52
2022-11-15T09:14:25.895Z,103.46
2022-11-15T09:15:21.335Z,102.57
2022-11-15T09:16:16.719Z,103.39
2022-11-15T09:17:12.213Z,103.65
2022-11-15T09:18:07.629Z,103.84
2022-11-15T09:19:06.416Z,104.30
2022-11-15T09:19:59.540Z,105.35
2022-11-15T09:20:54.000Z,105.15
2022-11-15T09:21:49.469Z,106.29
2022-11-15T09:22:45.275Z,106.15
2022-11-15T09:23:40.327Z,105.95
2022-11-15T09:24:35.321Z,106.36
2022-11-15T09:25:30.342Z,107.38
2022-11-15T09:26:25.436Z,108.29
2022-11-15T09:27:20.477Z,108.78
2022-11-15T09:28:15.637Z,108.15
2022-11-15T09:29:10.651Z,106.63
2022-11-15T09:30:05.726Z,102.25
2022-11-15T09:31:00.711Z,101.07
2022-11-15T09:31:55.837Z,97.13
2022-11-15T09:32:50.902Z,89.02
2022-11-15T09:33:46.025Z,87.34
2022-11-15T09:34:41.088Z,89.88
2022-11-15T09:35:36.122Z,91.06
2022-11-15T09:36:31.227Z,92.99
2022-11-15T09:37:27.165Z,94.25
2022-11-15T09:38:21.434Z,95.65
2022-11-15T09:39:16.530Z,94.49
2022-11-15T09:40:11.712Z,95.96
2022-11-15T09:41:07.533Z,96.07
2022-11-15T09:42:02.381Z,97.82
2022-11-15T09:42:58.256Z,98.51
2022-11-15T09:43:53.743Z,100.04
2022-11-15T09:44:49.269Z,100.77
2022-11-15T09:45:44.810Z,100.89
2022-11-15T09:46:41.022Z,101.50
2022-11-15T09:47:35.649Z,102.00
2022-11-15T09:48:31.384Z,103.20
2022-11-15T09:49:26.612Z,103.01
2022-11-15T09:50:21.882Z,103.01
2022-11-15T09:51:17.381Z,103.39
2022-11-15T09:52:12.727Z,102.76
2022-11-15T09:53:07.759Z,101.07
2022-11-15T09:54:45.488Z,100.53
2022-11-15T09:54:58.800Z,99.75
2022-11-15T09:55:52.865Z,97.99
2022-11-15T09:56:47.920Z,99.04
2022-11-15T09:57:43.097Z,100.65
2022-11-15T09:58:37.994Z,101.07
2022-11-15T09:59:33.069Z,102.13
2022-11-15T10:01:24.189Z,103.20
2022-11-15T10:02:22.278Z,102.69
2022-11-15T10:03:17.333Z,103.01
2022-11-15T10:04:12.773Z,104.30
2022-11-15T10:05:08.233Z,102.88
2022-11-15T10:06:03.640Z,101.44
2022-11-15T10:06:59.287Z,101.20
2022-11-15T10:07:54.555Z,100.77
2022-11-15T10:08:50.090Z,100.41
2022-11-15T10:09:45.503Z,102.32
2022-11-15T10:10:40.942Z,103.52
2022-11-15T10:11:38.120Z,102.25
2022-11-15T10:12:31.840Z,103.01
2022-11-15T10:13:27.161Z,102.32
2022-11-15T10:14:22.578Z,103.26
2022-11-15T10:15:18.058Z,102.44
2022-11-15T10:16:13.172Z,101.50
2022-11-15T10:17:08.188Z,102.63
2022-11-15T10:18:03.233Z,102.44
2022-11-15T10:18:58.337Z,102.50
2022-11-15T10:19:53.458Z,102.50
2022-11-15T10:20:48.507Z,103.84
2022-11-15T10:21:44.180Z,103.65
2022-11-15T10:22:39.201Z,103.84
2022-11-15T10:23:33.677Z,104.23
2022-11-15T10:24:29.356Z,104.04
2022-11-15T10:25:25.201Z,104.04
2022-11-15T10:26:20.342Z,104.36
2022-11-15T10:27:15.672Z,107.38
2022-11-15T10:28:10.713Z,107.59
2022-11-15T10:29:06.553Z,106.63
2022-11-15T10:30:02.054Z,107.18
2022-11-15T10:30:57.604Z,105.75
2022-11-15T10:31:53.150Z,107.73
2022-11-15T10:32:48.457Z,109.21
2022-11-15T10:33:43.864Z,111.25
2022-11-15T10:36:04.230Z,105.42
2022-11-15T10:36:59.554Z,106.97
2022-11-15T10:37:54.986Z,108.78
2022-11-15T10:38:50.424Z,110.22
2022-11-15T10:39:45.876Z,112.45
2022-11-15T10:40:41.283Z,114.22
2022-11-15T10:41:36.731Z,114.61
2022-11-15T10:42:32.151Z,116.53
2022-11-15T10:43:27.570Z,120.40
2022-11-15T10:44:23.037Z,123.25
2022-11-15T10:45:18.457Z,128.17
2022-11-15T10:46:44.521Z,131.29
2022-11-15T10:47:10.611Z,126.42
2022-11-15T10:48:05.141Z,121.19
2022-11-15T10:49:00.749Z,119.37
2022-11-15T10:49:56.423Z,116.53
2022-11-15T10:50:51.790Z,112.91
2022-11-15T10:51:47.303Z,112.00
2022-11-15T10:52:42.660Z,115.01
2022-11-15T10:53:38.606Z,116.53
2022-11-15T10:54:33.478Z,116.37
2022-11-15T10:55:28.865Z,115.56
2022-11-15T10:56:24.315Z,117.35
2022-11-15T10:57:19.616Z,116.37
2022-11-15T10:58:15.016Z,119.79
2022-11-15T10:59:10.556Z,123.61
2022-11-15T11:00:06.214Z,123.25
2022-11-15T11:01:01.640Z,126.23
2022-11-15T11:01:57.114Z,127.87
2022-11-15T11:02:52.639Z,130.27
2022-11-15T11:03:48.159Z,131.19
2022-11-15T11:04:43.636Z,130.37
2022-11-15T11:05:42.172Z,129.96
2022-11-15T11:06:34.531Z,129.36
2022-11-15T11:07:30.311Z,127.87
2022-11-15T11:08:25.507Z,130.17
2022-11-15T11:09:20.991Z,132.65
2022-11-15T11:10:44.191Z,134.47
2022-11-15T11:11:13.065Z,138.60
2022-11-15T11:12:07.526Z,138.03
2022-11-15T11:13:03.061Z,140.47
2022-11-15T11:13:58.445Z,138.83
2022-11-15T11:14:53.866Z,140.47
2022-11-15T11:15:49.288Z,142.63
2022-11-15T11:16:44.689Z,140.82
2022-11-15T11:17:40.372Z,140.70
2022-11-15T11:18:35.779Z,141.90
2022-11-15T11:19:31.187Z,143.24
2022-11-15T11:20:26.700Z,143.98
2022-11-15T11:21:25.671Z,142.14
2022-11-15T11:22:18.518Z,136.90
2022-11-15T11:23:12.933Z,134.47
2022-11-15T11:24:08.450Z,136.45
2022-11-15T11:25:03.917Z,139.76
2022-11-15T11:26:00.095Z,141.66
2022-11-15T11:26:57.169Z,142.75
2022-11-15T11:27:50.558Z,141.30
2022-11-15T11:28:46.121Z,128.27
2022-11-15T11:29:41.539Z,133.93
2022-11-15T11:30:36.915Z,135.67
2022-11-15T11:31:32.397Z,133.18
2022-11-15T11:32:27.897Z,127.19
2022-11-15T11:33:23.536Z,122.25
2022-11-15T11:34:19.020Z,118.69
2022-11-15T11:35:14.495Z,125.19
2022-11-15T11:36:10.130Z,132.65
2022-11-15T11:37:06.178Z,136.78